createdAt,value
2016-08-17T00:00:11.404Z,66.49
2016-08-17T00:01:10.572Z,66
2016-08-17T00:02:10.572Z,66.2
2016-08-17T00:03:10.602Z,66.2
2016-08-17T00:04:10.603Z,66.3
2016-08-17T00:05:11.415Z,66.68
2016-08-17T00:06:10.579Z,66.77
2016-08-17T00:07:10.582Z,66.87
2016-08-17T00:08:10.585Z,66.58
2016-08-17T00:09:10.585Z,66.84
2016-08-17T00:10:11.468Z,66.84
2016-08-17T00:11:10.592Z,66.93
2016-08-17T00:12:10.593Z,66.93
2016-08-17T00:13:10.597Z,67.61
2016-08-17T00:14:10.598Z,67.8
2016-08-17T00:15:10.654Z,68.08
2016-08-17T00:16:10.603Z,67.9
2016-08-17T00:17:10.602Z,67.9
2016-08-17T00:18:10.605Z,67.9
2016-08-17T00:19:10.608Z,67.8
2016-08-17T00:20:11.523Z,67.8
2016-08-17T00:21:10.627Z,67.7
2016-08-17T00:22:10.622Z,67.61
2016-08-17T00:23:10.632Z,67.8
2016-08-17T00:24:10.627Z,67.7
2016-08-17T00:25:11.412Z,67.99
2016-08-17T00:26:10.626Z,67.8
2016-08-17T00:27:10.626Z,67.76
2016-08-17T00:28:11.334Z,67.8
2016-08-17T00:29:10.628Z,67.57
2016-08-17T00:30:10.764Z,67.96
2016-08-17T00:31:10.643Z,67.76
2016-08-17T00:32:10.646Z,67.9
2016-08-17T00:33:10.637Z,67.8
2016-08-17T00:34:10.639Z,68.24
2016-08-17T00:35:10.757Z,68.15
2016-08-17T00:36:10.649Z,68.15
2016-08-17T00:37:10.657Z,68.34
2016-08-17T00:38:10.646Z,68.15
2016-08-17T00:39:10.652Z,68.73
2016-08-17T00:40:10.778Z,69.01
2016-08-17T00:41:10.655Z,68.44
2016-08-17T00:42:10.656Z,68.91
2016-08-17T00:43:10.667Z,68.73
2016-08-17T00:44:10.666Z,69.2
2016-08-17T00:45:10.789Z,68.63
2016-08-17T00:46:10.667Z,69.4
2016-08-17T00:47:10.670Z,69.2
2016-08-17T00:48:10.669Z,69.2
2016-08-17T00:49:10.672Z,68.85
2016-08-17T00:50:11.583Z,69.11
2016-08-17T00:51:10.678Z,68.44
2016-08-17T00:52:10.678Z,68.44
2016-08-17T00:53:10.679Z,69.05
2016-08-17T00:54:10.681Z,68.95
2016-08-17T00:55:11.606Z,68.82
2016-08-17T00:56:10.685Z,69.34
2016-08-17T00:57:10.699Z,69.24
2016-08-17T00:58:10.689Z,69.24
2016-08-17T00:59:10.728Z,68.66
2016-08-17T01:00:10.822Z,69.2
2016-08-17T01:01:10.704Z,69.05
2016-08-17T01:02:10.704Z,69.01
2016-08-17T01:03:10.704Z,69.11
2016-08-17T01:04:10.705Z,69.3
2016-08-17T01:05:11.591Z,69.3
2016-08-17T01:06:10.707Z,69.11
2016-08-17T01:07:10.705Z,68.82
2016-08-17T01:08:10.717Z,68.63
2016-08-17T01:09:10.713Z,69.01
2016-08-17T01:10:11.554Z,69.2
2016-08-17T01:11:10.721Z,69.05
2016-08-17T01:12:10.716Z,69.2
2016-08-17T01:13:10.720Z,69.11
2016-08-17T01:14:10.727Z,69.01
2016-08-17T01:15:10.829Z,69.3
2016-08-17T01:16:10.725Z,69.2
2016-08-17T01:17:10.732Z,69.2
2016-08-17T01:18:11.438Z,68.82
2016-08-17T01:19:10.734Z,69.01
2016-08-17T01:20:11.592Z,68.91
2016-08-17T01:21:10.734Z,69.01
2016-08-17T01:22:10.738Z,69.2
2016-08-17T01:23:10.747Z,69.11
2016-08-17T01:24:11.447Z,69.97
2016-08-17T01:25:10.834Z,69.97
2016-08-17T01:26:10.746Z,69.59
2016-08-17T01:27:10.745Z,70.07
2016-08-17T01:28:10.750Z,69.87
2016-08-17T01:29:10.752Z,69.59
2016-08-17T01:30:11.632Z,70.36
2016-08-17T01:31:10.753Z,70.07
2016-08-17T01:32:10.756Z,70.61
2016-08-17T01:33:10.762Z,70.55
2016-08-17T01:34:10.760Z,70.36
2016-08-17T01:35:11.624Z,70.51
2016-08-17T01:36:10.768Z,70.7
2016-08-17T01:37:10.766Z,70.61
2016-08-17T01:38:10.768Z,70.9
2016-08-17T01:39:10.767Z,70.9
2016-08-17T01:40:11.641Z,70.51
2016-08-17T01:41:10.786Z,70.23
2016-08-17T01:42:10.790Z,70.61
2016-08-17T01:43:11.490Z,70.32
2016-08-17T01:44:10.784Z,70.36
2016-08-17T01:45:10.849Z,70.42
2016-08-17T01:46:10.790Z,70.51
2016-08-17T01:47:10.784Z,70.8
2016-08-17T01:48:10.789Z,70.9
2016-08-17T01:49:10.788Z,70.42
2016-08-17T01:50:11.632Z,71.19
2016-08-17T01:51:10.792Z,70.9
2016-08-17T01:52:10.795Z,70.7
2016-08-17T01:53:10.804Z,71.19
2016-08-17T01:54:10.805Z,71.66
2016-08-17T01:55:11.661Z,70.99
2016-08-17T01:56:10.809Z,71.19
2016-08-17T01:57:10.808Z,71.37
2016-08-17T01:58:10.807Z,71.47
2016-08-17T01:59:10.811Z,71.37
2016-08-17T02:00:11.659Z,71.37
2016-08-17T02:01:10.811Z,71.37
2016-08-17T02:02:10.817Z,71.28
2016-08-17T02:03:10.821Z,71.66
2016-08-17T02:04:10.817Z,71.76
2016-08-17T02:05:10.954Z,72.24
2016-08-17T02:06:10.822Z,72.33
2016-08-17T02:07:10.821Z,72.14
2016-08-17T02:08:10.827Z,72.24
2016-08-17T02:09:10.831Z,72.24
2016-08-17T02:10:11.727Z,71.95
2016-08-17T02:11:10.832Z,72.72
2016-08-17T02:12:10.836Z,72.91
2016-08-17T02:13:11.547Z,72.24
2016-08-17T02:14:11.545Z,72.05
2016-08-17T02:15:11.782Z,73
2016-08-17T02:16:10.840Z,72.81
2016-08-17T02:17:10.840Z,72.53
2016-08-17T02:18:10.842Z,72.81
2016-08-17T02:19:10.845Z,72.63
2016-08-17T02:20:10.959Z,72.91
2016-08-17T02:21:10.848Z,72.63
2016-08-17T02:22:10.853Z,72.53
2016-08-17T02:23:10.863Z,72.91
2016-08-17T02:24:10.853Z,72.63
2016-08-17T02:25:11.815Z,72.63
2016-08-17T02:26:10.859Z,72.81
2016-08-17T02:27:10.860Z,72.81
2016-08-17T02:28:10.864Z,73.39
2016-08-17T02:29:10.863Z,73.1
2016-08-17T02:30:10.986Z,73.58
2016-08-17T02:31:10.867Z,73.58
2016-08-17T02:32:10.868Z,73.87
2016-08-17T02:33:10.870Z,73.77
2016-08-17T02:34:10.870Z,73.58
2016-08-17T02:35:11.022Z,73.68
2016-08-17T02:36:10.876Z,73.68
2016-08-17T02:37:10.881Z,73.68
2016-08-17T02:38:10.885Z,73.58
2016-08-17T02:39:10.902Z,73.77
2016-08-17T02:40:11.817Z,73.58
2016-08-17T02:41:10.901Z,73.58
2016-08-17T02:42:10.889Z,74.26
2016-08-17T02:43:10.888Z,74.73
2016-08-17T02:44:10.890Z,74.93
2016-08-17T02:45:11.018Z,74.98
2016-08-17T02:46:10.903Z,75.56
2016-08-17T02:47:10.906Z,75.46
2016-08-17T02:48:10.905Z,75.18
2016-08-17T02:49:10.904Z,75.27
2016-08-17T02:50:11.010Z,75.37
2016-08-17T02:51:10.907Z,75.27
2016-08-17T02:52:10.908Z,75.08
2016-08-17T02:53:10.909Z,74.6
2016-08-17T02:54:10.908Z,74.79
2016-08-17T02:55:11.014Z,74.89
2016-08-17T02:56:10.920Z,74.89
2016-08-17T02:57:10.921Z,74.6
2016-08-17T02:58:10.923Z,74.79
2016-08-17T02:59:10.922Z,74.89
2016-08-17T03:00:11.036Z,74.6
2016-08-17T03:01:10.928Z,74.6
2016-08-17T03:02:10.930Z,74.89
2016-08-17T03:03:10.928Z,74.89
2016-08-17T03:04:10.926Z,74.79
2016-08-17T03:05:11.025Z,74.89
2016-08-17T03:06:11.645Z,74.69
2016-08-17T03:07:11.649Z,74.89
2016-08-17T03:08:10.933Z,74.6
2016-08-17T03:09:10.934Z,74.79
2016-08-17T03:10:11.878Z,74.98
2016-08-17T03:11:10.943Z,74.98
2016-08-17T03:12:10.943Z,74.89
2016-08-17T03:13:10.938Z,74.79
2016-08-17T03:14:10.942Z,75.27
2016-08-17T03:15:11.835Z,75.18
2016-08-17T03:16:10.943Z,75.37
2016-08-17T03:17:10.946Z,75.46
2016-08-17T03:18:10.955Z,74.98
2016-08-17T03:19:10.952Z,75.18
2016-08-17T03:20:11.907Z,75.56
2016-08-17T03:21:10.954Z,75.46
2016-08-17T03:22:10.955Z,75.37
2016-08-17T03:23:10.955Z,75.56
2016-08-17T03:24:10.963Z,75.56
2016-08-17T03:25:11.951Z,75.65
2016-08-17T03:26:10.962Z,75.65
2016-08-17T03:27:10.965Z,75.75
2016-08-17T03:28:10.964Z,75.95
2016-08-17T03:29:10.969Z,75.85
2016-08-17T03:30:11.962Z,75.65
2016-08-17T03:31:10.971Z,75.56
2016-08-17T03:32:10.973Z,76.52
2016-08-17T03:33:10.973Z,76.52
2016-08-17T03:34:10.985Z,76.32
2016-08-17T03:35:11.997Z,76.23
2016-08-17T03:36:10.987Z,75.95
2016-08-17T03:37:10.992Z,76.42
2016-08-17T03:38:10.991Z,76.62
2016-08-17T03:39:10.988Z,76.62
2016-08-17T03:40:11.166Z,76.62
2016-08-17T03:41:10.992Z,76.71
2016-08-17T03:42:10.991Z,76.81
2016-08-17T03:43:10.992Z,76.62
2016-08-17T03:44:11.699Z,76.81
2016-08-17T03:45:11.144Z,76.9
2016-08-17T03:46:11.005Z,77.76
2016-08-17T03:47:11.007Z,78.05
2016-08-17T03:48:11.001Z,78.44
2016-08-17T03:49:11.001Z,78.63
2016-08-17T03:50:11.965Z,78.82
2016-08-17T03:51:11.011Z,79.11
2016-08-17T03:52:11.011Z,79.59
2016-08-17T03:53:11.015Z,79.88
2016-08-17T03:54:11.013Z,79.88
2016-08-17T03:55:12.006Z,79.97
2016-08-17T03:56:11.014Z,79.78
2016-08-17T03:57:11.020Z,79.78
2016-08-17T03:58:11.017Z,79.88
2016-08-17T03:59:11.019Z,80.07
2016-08-17T04:00:11.976Z,79.78
2016-08-17T04:01:11.022Z,79.88
2016-08-17T04:02:11.025Z,79.59
2016-08-17T04:03:11.025Z,79.97
2016-08-17T04:04:11.024Z,79.78
2016-08-17T04:05:11.182Z,79.59
2016-08-17T04:06:11.029Z,79.68
2016-08-17T04:07:11.035Z,79.3
2016-08-17T04:08:11.035Z,79.21
2016-08-17T04:09:11.033Z,79.49
2016-08-17T04:10:11.932Z,79.78
2016-08-17T04:11:11.041Z,79.78
2016-08-17T04:12:11.039Z,79.78
2016-08-17T04:13:11.039Z,79.59
2016-08-17T04:14:11.042Z,79.11
2016-08-17T04:15:11.823Z,79.88
2016-08-17T04:16:11.046Z,79.68
2016-08-17T04:17:11.046Z,79.59
2016-08-17T04:18:11.048Z,79.49
2016-08-17T04:19:11.063Z,79.59
2016-08-17T04:20:11.179Z,80.26
2016-08-17T04:21:11.054Z,79.49
2016-08-17T04:22:11.053Z,79.97
2016-08-17T04:23:11.055Z,79.3
2016-08-17T04:24:11.071Z,79.49
2016-08-17T04:25:11.057Z,79.3
2016-08-17T04:26:11.066Z,80.26
2016-08-17T04:27:11.068Z,80.26
2016-08-17T04:28:11.069Z,79.59
2016-08-17T04:29:11.066Z,79.3
2016-08-17T04:30:11.995Z,79.78
2016-08-17T04:31:11.075Z,79.59
2016-08-17T04:32:11.075Z,79.59
2016-08-17T04:33:11.106Z,79.68
2016-08-17T04:34:11.074Z,79.11
2016-08-17T04:35:11.965Z,79.39
2016-08-17T04:36:11.077Z,78.92
2016-08-17T04:37:11.080Z,79.39
2016-08-17T04:38:11.081Z,79.01
2016-08-17T04:39:11.084Z,79.01
2016-08-17T04:40:11.175Z,79.01
2016-08-17T04:41:11.090Z,78.72
2016-08-17T04:42:11.088Z,78.82
2016-08-17T04:43:11.090Z,79.11
2016-08-17T04:44:11.091Z,79.11
2016-08-17T04:45:12.001Z,79.21
2016-08-17T04:46:11.093Z,78.92
2016-08-17T04:47:11.102Z,78.92
2016-08-17T04:48:11.100Z,79.01
2016-08-17T04:49:11.099Z,78.82
2016-08-17T04:50:11.985Z,78.92
2016-08-17T04:51:11.100Z,78.63
2016-08-17T04:52:11.103Z,78.72
2016-08-17T04:53:11.109Z,78.63
2016-08-17T04:54:11.107Z,78.63
2016-08-17T04:55:12.029Z,78.63
2016-08-17T04:56:11.117Z,78.63
2016-08-17T04:57:11.112Z,78.63
2016-08-17T04:58:11.116Z,78.44
2016-08-17T04:59:11.121Z,78.82
2016-08-17T05:00:12.138Z,79.14
2016-08-17T05:01:11.118Z,78.86
2016-08-17T05:02:11.121Z,78.38
2016-08-17T05:03:11.123Z,78.19
2016-08-17T05:04:11.123Z,78.19
2016-08-17T05:05:12.136Z,78.19
2016-08-17T05:06:11.131Z,78.38
2016-08-17T05:07:11.130Z,77.9
2016-08-17T05:08:11.134Z,77.33
2016-08-17T05:09:11.133Z,77.51
2016-08-17T05:10:11.246Z,77.8
2016-08-17T05:11:11.135Z,77.61
2016-08-17T05:12:11.139Z,77.04
2016-08-17T05:13:11.139Z,76.94
2016-08-17T05:14:11.142Z,77.04
2016-08-17T05:15:12.161Z,76.37
2016-08-17T05:16:11.149Z,76.88
2016-08-17T05:17:11.147Z,76.69
2016-08-17T05:18:11.150Z,76.69
2016-08-17T05:19:11.152Z,76.59
2016-08-17T05:20:12.127Z,76.88
2016-08-17T05:21:11.158Z,76.79
2016-08-17T05:22:11.158Z,76.69
2016-08-17T05:23:11.161Z,76.98
2016-08-17T05:24:11.176Z,76.69
2016-08-17T05:25:12.155Z,77.08
2016-08-17T05:26:11.175Z,77.08
2016-08-17T05:27:11.170Z,76.98
2016-08-17T05:28:11.177Z,77.17
2016-08-17T05:29:11.178Z,77.17
2016-08-17T05:30:12.168Z,76.5
2016-08-17T05:31:11.183Z,76.59
2016-08-17T05:32:11.181Z,76.31
2016-08-17T05:33:11.182Z,76.4
2016-08-17T05:34:11.183Z,75.92
2016-08-17T05:35:12.131Z,75.67
2016-08-17T05:36:11.187Z,75.87
2016-08-17T05:37:11.190Z,75.48
2016-08-17T05:38:11.193Z,74.71
2016-08-17T05:39:11.201Z,74.62
2016-08-17T05:40:12.158Z,74.62
2016-08-17T05:41:11.198Z,74.23
2016-08-17T05:42:11.201Z,73.85
2016-08-17T05:43:11.205Z,73.85
2016-08-17T05:44:11.211Z,73.85
2016-08-17T05:45:12.185Z,74.33
2016-08-17T05:46:11.211Z,73.75
2016-08-17T05:47:11.212Z,73.69
2016-08-17T05:48:11.215Z,73.69
2016-08-17T05:49:11.219Z,74.17
2016-08-17T05:50:12.159Z,73.66
2016-08-17T05:51:11.221Z,73.69
2016-08-17T05:52:11.225Z,73.41
2016-08-17T05:53:11.935Z,73.41
2016-08-17T05:54:11.233Z,73.69
2016-08-17T05:55:11.390Z,73.21
2016-08-17T05:56:11.234Z,73.21
2016-08-17T05:57:11.237Z,73.41
2016-08-17T05:58:11.244Z,73.79
2016-08-17T05:59:11.253Z,73.31
2016-08-17T06:00:11.355Z,73.41
2016-08-17T06:01:11.252Z,73.11
2016-08-17T06:02:11.255Z,72.73
2016-08-17T06:03:11.255Z,73.02
2016-08-17T06:04:11.258Z,72.83
2016-08-17T06:05:12.168Z,72.73
2016-08-17T06:06:11.261Z,72.92
2016-08-17T06:07:11.265Z,72.83
2016-08-17T06:08:11.268Z,72.73
2016-08-17T06:09:11.268Z,72.92
2016-08-17T06:10:12.290Z,72.44
2016-08-17T06:11:11.274Z,72.16
2016-08-17T06:12:11.275Z,72.34
2016-08-17T06:13:11.284Z,71.67
2016-08-17T06:14:11.281Z,71.67
2016-08-17T06:15:12.178Z,71
2016-08-17T06:16:11.284Z,70.43
2016-08-17T06:17:11.288Z,70.9
2016-08-17T06:18:11.290Z,70.23
2016-08-17T06:19:11.292Z,69.79
2016-08-17T06:20:12.293Z,69.79
2016-08-17T06:21:11.300Z,69.89
2016-08-17T06:22:11.303Z,70.07
2016-08-17T06:23:11.307Z,70.17
2016-08-17T06:24:11.305Z,69.79
2016-08-17T06:25:12.218Z,71.14
2016-08-17T06:26:11.312Z,70.56
2016-08-17T06:27:11.318Z,70.37
2016-08-17T06:28:11.317Z,70.37
2016-08-17T06:29:11.319Z,70.07
2016-08-17T06:30:11.533Z,69.98
2016-08-17T06:31:11.325Z,69.98
2016-08-17T06:32:11.331Z,69.98
2016-08-17T06:33:11.345Z,69.69
2016-08-17T06:34:11.334Z,69.5
2016-08-17T06:35:12.295Z,69.89
2016-08-17T06:36:11.340Z,69.79
2016-08-17T06:37:11.350Z,69.98
2016-08-17T06:38:11.347Z,70.27
2016-08-17T06:39:11.349Z,70.07
2016-08-17T06:40:11.548Z,69.89
2016-08-17T06:41:11.352Z,69.79
2016-08-17T06:42:11.356Z,69.4
2016-08-17T06:43:11.361Z,69.6
2016-08-17T06:44:11.373Z,69.6
2016-08-17T06:45:12.280Z,69.21
2016-08-17T06:46:11.369Z,69.21
2016-08-17T06:47:11.372Z,69.31
2016-08-17T06:48:11.379Z,69.21
2016-08-17T06:49:11.375Z,68.73
2016-08-17T06:50:12.407Z,69.31
2016-08-17T06:51:11.389Z,68.63
2016-08-17T06:52:11.385Z,68.35
2016-08-17T06:53:12.094Z,68.67
2016-08-17T06:54:11.406Z,68.86
2016-08-17T06:55:12.393Z,68.67
2016-08-17T06:56:12.108Z,68.67
2016-08-17T06:57:12.108Z,69.12
2016-08-17T06:58:11.411Z,68.67
2016-08-17T06:59:11.421Z,67.99
2016-08-17T07:00:12.297Z,67.32
2016-08-17T07:01:11.413Z,67.71
2016-08-17T07:02:11.415Z,68.44
2016-08-17T07:03:12.129Z,67.96
2016-08-17T07:04:11.420Z,67.96
2016-08-17T07:05:12.348Z,66.65
2016-08-17T07:06:11.425Z,66.84
2016-08-17T07:07:11.430Z,66.94
2016-08-17T07:08:11.433Z,68.06
2016-08-17T07:09:12.147Z,68.15
2016-08-17T07:10:12.362Z,68.73
2016-08-17T07:11:11.441Z,68.63
2016-08-17T07:12:11.443Z,68.73
2016-08-17T07:13:11.447Z,68.92
2016-08-17T07:14:11.448Z,68.54
2016-08-17T07:15:11.608Z,67.96
2016-08-17T07:16:11.454Z,68.25
2016-08-17T07:17:11.457Z,67.99
2016-08-17T07:18:11.459Z,67.22
2016-08-17T07:19:11.465Z,67.42
2016-08-17T07:20:11.632Z,67.13
2016-08-17T07:21:11.480Z,66.07
2016-08-17T07:22:11.481Z,66.46
2016-08-17T07:23:11.482Z,66.55
2016-08-17T07:24:11.483Z,66.27
2016-08-17T07:25:12.418Z,65.97
2016-08-17T07:26:11.482Z,65.59
2016-08-17T07:27:11.486Z,66.1
2016-08-17T07:28:11.490Z,66.1
2016-08-17T07:29:11.492Z,66.01
2016-08-17T07:30:11.661Z,65.53
2016-08-17T07:31:11.501Z,65.81
2016-08-17T07:32:11.499Z,64.86
2016-08-17T07:33:11.510Z,64.82
2016-08-17T07:34:11.513Z,65.59
2016-08-17T07:35:12.432Z,65.24
2016-08-17T07:36:11.516Z,64.28
2016-08-17T07:37:11.518Z,64.18
2016-08-17T07:38:11.518Z,64.18
2016-08-17T07:39:12.233Z,64.08
2016-08-17T07:40:11.769Z,63.86
2016-08-17T07:41:11.529Z,63.51
2016-08-17T07:42:11.549Z,63.31
2016-08-17T07:43:11.535Z,62.64
2016-08-17T07:44:11.541Z,62.83
2016-08-17T07:45:12.470Z,62.16
2016-08-17T07:46:11.546Z,61.58
2016-08-17T07:47:11.546Z,61
2016-08-17T07:48:11.554Z,60.65
2016-08-17T07:49:11.558Z,60.84
2016-08-17T07:50:12.499Z,60.75
2016-08-17T07:51:11.562Z,60.68
2016-08-17T07:52:11.577Z,60.77
2016-08-17T07:53:11.572Z,59.81
2016-08-17T07:54:11.579Z,59.33
2016-08-17T07:55:12.500Z,58.47
2016-08-17T07:56:11.582Z,59.14
2016-08-17T07:57:11.582Z,59.04
2016-08-17T07:58:11.591Z,59.04
2016-08-17T07:59:11.596Z,58.27
2016-08-17T08:00:12.530Z,58.27
2016-08-17T08:01:11.594Z,58.56
2016-08-17T08:02:11.598Z,58.65
2016-08-17T08:03:11.601Z,58.85
2016-08-17T08:04:11.606Z,58.37
2016-08-17T08:05:12.560Z,58.27
2016-08-17T08:06:11.615Z,58.27
2016-08-17T08:07:11.619Z,58.4
2016-08-17T08:08:11.625Z,57.43
2016-08-17T08:09:11.623Z,57.24
2016-08-17T08:10:12.519Z,57.14
2016-08-17T08:11:11.634Z,57.05
2016-08-17T08:12:11.642Z,57.24
2016-08-17T08:13:11.644Z,57.24
2016-08-17T08:14:11.654Z,56.95
2016-08-17T08:15:11.841Z,57.34
2016-08-17T08:16:11.650Z,56.66
2016-08-17T08:17:11.656Z,56.76
2016-08-17T08:18:11.661Z,55.99
2016-08-17T08:19:12.368Z,56.09
2016-08-17T08:20:11.828Z,56.85
2016-08-17T08:21:11.666Z,56.27
2016-08-17T08:22:11.674Z,56.76
2016-08-17T08:23:11.680Z,56.09
2016-08-17T08:24:11.679Z,55.6
2016-08-17T08:25:11.869Z,56.27
2016-08-17T08:26:12.393Z,55.79
2016-08-17T08:27:11.691Z,56.09
2016-08-17T08:28:11.694Z,55.82
2016-08-17T08:29:11.698Z,55.24
2016-08-17T08:30:12.581Z,55.44
2016-08-17T08:31:11.714Z,55.54
2016-08-17T08:32:11.714Z,54.66
2016-08-17T08:33:11.735Z,54.86
2016-08-17T08:34:11.738Z,54.28
2016-08-17T08:35:11.891Z,53.89
2016-08-17T08:36:11.738Z,54.47
2016-08-17T08:37:11.737Z,54.57
2016-08-17T08:38:11.742Z,53.8
2016-08-17T08:39:11.742Z,53.89
2016-08-17T08:40:12.669Z,53.51
2016-08-17T08:41:11.759Z,53.51
2016-08-17T08:42:11.755Z,53.8
2016-08-17T08:43:11.757Z,53.92
2016-08-17T08:44:11.761Z,54.02
2016-08-17T08:45:12.655Z,54.11
2016-08-17T08:46:11.775Z,53.22
2016-08-17T08:47:11.775Z,54.28
2016-08-17T08:48:11.779Z,53.99
2016-08-17T08:49:11.783Z,54.09
2016-08-17T08:50:11.963Z,54.28
2016-08-17T08:51:11.801Z,53.8
2016-08-17T08:52:11.789Z,54.18
2016-08-17T08:53:11.807Z,54.57
2016-08-17T08:54:11.811Z,53.99
2016-08-17T08:55:12.757Z,53.99
2016-08-17T08:56:11.809Z,53.31
2016-08-17T08:57:11.811Z,52.83
2016-08-17T08:58:11.815Z,53.44
2016-08-17T08:59:11.821Z,53.51
2016-08-17T09:00:12.684Z,53.34
2016-08-17T09:01:11.829Z,53.73
2016-08-17T09:02:11.827Z,53.53
2016-08-17T09:03:11.836Z,53.22
2016-08-17T09:04:11.838Z,52.86
2016-08-17T09:05:12.719Z,52.83
2016-08-17T09:06:11.850Z,52.57
2016-08-17T09:07:11.852Z,52.47
2016-08-17T09:08:11.853Z,52.86
2016-08-17T09:09:11.858Z,52.57
2016-08-17T09:10:12.822Z,52.19
2016-08-17T09:11:11.865Z,52.67
2016-08-17T09:12:11.866Z,51.89
2016-08-17T09:13:11.872Z,52.19
2016-08-17T09:14:11.878Z,52.25
2016-08-17T09:15:12.787Z,52.09
2016-08-17T09:16:11.893Z,52.19
2016-08-17T09:17:11.892Z,52.57
2016-08-17T09:18:11.893Z,52.28
2016-08-17T09:19:11.896Z,51.99
2016-08-17T09:20:12.804Z,51.61
2016-08-17T09:21:11.906Z,51.32
2016-08-17T09:22:11.906Z,51.51
2016-08-17T09:23:11.911Z,52.19
2016-08-17T09:24:11.916Z,51.89
2016-08-17T09:25:12.843Z,51.51
2016-08-17T09:26:11.934Z,51.7
2016-08-17T09:27:11.932Z,51.89
2016-08-17T09:28:12.638Z,51.7
2016-08-17T09:29:11.933Z,51.8
2016-08-17T09:30:12.859Z,52.19
2016-08-17T09:31:11.948Z,51.58
2016-08-17T09:32:11.946Z,51.39
2016-08-17T09:33:11.951Z,51.58
2016-08-17T09:34:11.957Z,50.45
2016-08-17T09:35:12.191Z,50.74
2016-08-17T09:36:11.964Z,49.84
2016-08-17T09:37:11.969Z,50.71
2016-08-17T09:38:11.975Z,51.48
2016-08-17T09:39:11.975Z,51.48
2016-08-17T09:40:12.899Z,50.71
2016-08-17T09:41:11.979Z,50.71
2016-08-17T09:42:11.995Z,51
2016-08-17T09:43:11.999Z,51.2
2016-08-17T09:44:11.999Z,51.58
2016-08-17T09:45:12.917Z,51.39
2016-08-17T09:46:12.005Z,51.94
2016-08-17T09:47:12.005Z,51.65
2016-08-17T09:48:12.013Z,51.36
2016-08-17T09:49:12.020Z,51.56
2016-08-17T09:50:12.280Z,51.26
2016-08-17T09:51:12.021Z,52.16
2016-08-17T09:52:12.025Z,52.16
2016-08-17T09:53:12.036Z,54.18
2016-08-17T09:54:12.029Z,52.64
2016-08-17T09:55:12.996Z,51.68
2016-08-17T09:56:12.038Z,50.93
2016-08-17T09:57:12.043Z,50.84
2016-08-17T09:58:12.053Z,50.93
2016-08-17T09:59:12.047Z,50.86
2016-08-17T10:00:12.952Z,50.28
2016-08-17T10:01:12.063Z,49.99
2016-08-17T10:02:12.068Z,49.41
2016-08-17T10:03:12.071Z,49.41
2016-08-17T10:04:12.069Z,49.73
2016-08-17T10:05:12.956Z,50.21
2016-08-17T10:06:12.082Z,49.44
2016-08-17T10:07:12.093Z,48.57
2016-08-17T10:08:12.094Z,48.37
2016-08-17T10:09:12.091Z,47.99
2016-08-17T10:10:12.803Z,48.08
2016-08-17T10:11:12.106Z,48.47
2016-08-17T10:12:12.107Z,49.15
2016-08-17T10:13:12.103Z,47.99
2016-08-17T10:14:12.122Z,47.81
2016-08-17T10:15:13.082Z,48.49
2016-08-17T10:16:12.122Z,47.33
2016-08-17T10:17:12.841Z,47.24
2016-08-17T10:18:12.129Z,47.02
2016-08-17T10:19:12.139Z,48.37
2016-08-17T10:20:12.869Z,48.86
2016-08-17T10:21:12.151Z,48.37
2016-08-17T10:22:12.144Z,48.01
2016-08-17T10:23:12.148Z,46.95
2016-08-17T10:24:12.146Z,46.47
2016-08-17T10:25:12.998Z,45.98
2016-08-17T10:26:12.154Z,46.08
2016-08-17T10:27:12.158Z,46.27
2016-08-17T10:28:12.177Z,46.37
2016-08-17T10:29:12.173Z,46.17
2016-08-17T10:30:13.062Z,46.47
2016-08-17T10:31:12.190Z,46.08
2016-08-17T10:32:12.189Z,45.72
2016-08-17T10:33:12.196Z,45.33
2016-08-17T10:34:12.190Z,45.42
2016-08-17T10:35:13.120Z,44.65
2016-08-17T10:36:12.197Z,45.23
2016-08-17T10:37:12.204Z,45.23
2016-08-17T10:38:12.212Z,44.94
2016-08-17T10:39:12.217Z,45.04
2016-08-17T10:40:12.216Z,45.04
2016-08-17T10:41:12.236Z,44.75
2016-08-17T10:42:12.224Z,43.88
2016-08-17T10:43:12.244Z,43.3
2016-08-17T10:44:12.233Z,43.59
2016-08-17T10:45:12.236Z,43.98
2016-08-17T10:46:12.241Z,44.87
2016-08-17T10:47:12.244Z,44.38
2016-08-17T10:48:12.249Z,45.06
2016-08-17T10:49:12.251Z,44.67
2016-08-17T10:50:12.254Z,44.19
2016-08-17T10:51:12.273Z,43.32
2016-08-17T10:52:12.263Z,43.13
2016-08-17T10:53:12.276Z,43.13
2016-08-17T10:54:12.278Z,42.83
2016-08-17T10:55:12.280Z,42.83
2016-08-17T10:56:12.293Z,43.8
2016-08-17T10:57:12.292Z,43.13
2016-08-17T10:58:12.294Z,42.96
2016-08-17T10:59:12.311Z,42.86
2016-08-17T11:00:12.314Z,43.15
2016-08-17T11:01:12.313Z,42.57
2016-08-17T11:02:12.313Z,42.25
2016-08-17T11:03:12.318Z,41.99
2016-08-17T11:04:12.315Z,41.7
2016-08-17T11:05:13.033Z,41.99
2016-08-17T11:06:12.325Z,41.79
2016-08-17T11:07:12.331Z,41.89
2016-08-17T11:08:12.334Z,42.08
2016-08-17T11:09:12.343Z,41.89
2016-08-17T11:10:13.326Z,41.7
2016-08-17T11:11:12.379Z,41.24
2016-08-17T11:12:12.377Z,41.31
2016-08-17T11:13:12.357Z,41.82
2016-08-17T11:14:12.381Z,41.42
2016-08-17T11:15:12.382Z,41.14
2016-08-17T11:16:12.390Z,41.33
2016-08-17T11:17:12.381Z,41.24
2016-08-17T11:18:12.381Z,41.52
2016-08-17T11:19:12.385Z,41.24
2016-08-17T11:20:13.324Z,41.04
2016-08-17T11:21:12.393Z,40.84
2016-08-17T11:22:12.394Z,40.17
2016-08-17T11:23:12.402Z,40.17
2016-08-17T11:24:12.407Z,40.17
2016-08-17T11:25:12.412Z,40.75
2016-08-17T11:26:12.431Z,40.84
2016-08-17T11:27:12.420Z,40.09
2016-08-17T11:28:12.426Z,39.9
2016-08-17T11:29:12.436Z,39.51
2016-08-17T11:30:12.519Z,40.09
2016-08-17T11:31:12.439Z,40.28
2016-08-17T11:32:12.447Z,40.28
2016-08-17T11:33:12.448Z,40.09
2016-08-17T11:34:13.170Z,39.9
2016-08-17T11:35:13.181Z,39.78
2016-08-17T11:36:12.464Z,39.61
2016-08-17T11:37:12.467Z,39.8
2016-08-17T11:38:12.474Z,39.97
2016-08-17T11:39:12.480Z,40.94
2016-08-17T11:40:12.482Z,40.56
2016-08-17T11:41:12.500Z,40.19
2016-08-17T11:42:12.508Z,41.93
2016-08-17T11:43:13.205Z,42.71
2016-08-17T11:44:12.502Z,40.77
2016-08-17T11:45:12.533Z,39.7
2016-08-17T11:46:12.511Z,39.22
2016-08-17T11:47:12.522Z,39.51
2016-08-17T11:48:12.519Z,38.93
2016-08-17T11:49:12.524Z,38.64
2016-08-17T11:50:13.323Z,38.54
2016-08-17T11:51:12.536Z,39.04
2016-08-17T11:52:12.551Z,39.04
2016-08-17T11:53:12.555Z,38.64
2016-08-17T11:54:12.551Z,38.83
2016-08-17T11:55:13.420Z,38.93
2016-08-17T11:56:12.562Z,38.54
2016-08-17T11:57:12.568Z,38.73
2016-08-17T11:58:12.571Z,38.83
2016-08-17T11:59:12.582Z,39.7
2016-08-17T12:00:13.421Z,39.12
2016-08-17T12:01:12.597Z,39.8
2016-08-17T12:02:12.589Z,39.12
2016-08-17T12:03:12.594Z,39.12
2016-08-17T12:04:12.597Z,38.93
2016-08-17T12:05:12.605Z,38.56
2016-08-17T12:06:12.615Z,38.66
2016-08-17T12:07:12.618Z,37.98
2016-08-17T12:08:12.618Z,37.59
2016-08-17T12:09:12.624Z,37.69
2016-08-17T12:10:12.625Z,38.37
2016-08-17T12:11:12.635Z,38.66
2016-08-17T12:12:12.639Z,38.37
2016-08-17T12:13:12.645Z,38.66
2016-08-17T12:14:13.358Z,37.79
2016-08-17T12:15:12.653Z,38.17
2016-08-17T12:16:12.662Z,38.37
2016-08-17T12:17:12.662Z,37.69
2016-08-17T12:18:12.667Z,37.3
2016-08-17T12:19:12.680Z,36.54
2016-08-17T12:20:12.681Z,36.64
2016-08-17T12:21:12.683Z,36.06
2016-08-17T12:22:12.692Z,36.16
2016-08-17T12:23:12.705Z,36.35
2016-08-17T12:24:12.706Z,35.86
2016-08-17T12:25:12.930Z,36.06
2016-08-17T12:26:12.717Z,35.96
2016-08-17T12:27:12.713Z,34.8
2016-08-17T12:28:12.717Z,34.7
2016-08-17T12:29:12.727Z,35.09
2016-08-17T12:30:12.728Z,35.19
2016-08-17T12:31:13.441Z,34.7
2016-08-17T12:32:12.735Z,34.8
2016-08-17T12:33:12.762Z,34.51
2016-08-17T12:34:12.746Z,34.12
2016-08-17T12:35:12.751Z,34.12
2016-08-17T12:36:12.756Z,33.54
2016-08-17T12:37:12.770Z,33.44
2016-08-17T12:38:12.769Z,32.67
2016-08-17T12:39:12.773Z,33.92
2016-08-17T12:40:12.784Z,34.41
2016-08-17T12:41:12.782Z,34.04
2016-08-17T12:42:12.797Z,33.26
2016-08-17T12:43:12.793Z,33.26
2016-08-17T12:44:12.800Z,33.36
2016-08-17T12:45:12.803Z,33.36
2016-08-17T12:46:12.807Z,33.46
2016-08-17T12:47:12.813Z,33.26
2016-08-17T12:48:12.820Z,34.53
2016-08-17T12:49:12.824Z,34.72
2016-08-17T12:50:12.830Z,34.23
2016-08-17T12:51:12.834Z,34.81
2016-08-17T12:52:13.545Z,34.72
2016-08-17T12:53:13.557Z,33.28
2016-08-17T12:54:12.848Z,31.73
2016-08-17T12:55:12.857Z,36.68